This is the latest recevied weather packets stored in our database for station/object KB3KAV. If no packets are shown the sender has not sent any weather packets the latest 10 day(s).
| Time | Temp. | Humidity | Pressure | Rain* | Wind** | Luminosity | Snow |
|---|---|---|---|---|---|---|---|
| 1777491219 | 12.22° C | 91% | 1039.4 hPa | 0 mm | - | 130 W/m² | - |
| 1777490617 | 11.67° C | 92% | 1039.5 hPa | 0 mm | - | 63 W/m² | - |
| 1777490017 | 12.22° C | 92% | 1039.6 hPa | 1.78 mm | - | 50 W/m² | - |
| 1777489417 | 12.22° C | 92% | 1039.7 hPa | 3.05 mm | - | 88 W/m² | - |
| 1777488817 | 12.22° C | 92% | 1040 hPa | 1.78 mm | - | 63 W/m² | - |
| 1777488212 | 12.78° C | 92% | 1040 hPa | 7.11 mm | - | 66 W/m² | - |
| 1777487607 | 12.78° C | 90% | 1040.1 hPa | 4.83 mm | - | 36 W/m² | - |
| 1777487007 | 13.33° C | 85% | 1040.5 hPa | 4.83 mm | - | 49 W/m² | - |
| 1777486408 | 14.44° C | 79% | 1040.5 hPa | 0 mm | - | 37 W/m² | - |
| 1777485807 | 14.44° C | 77% | 1040.5 hPa | 0 mm | - | 30 W/m² | - |
| 1777485205 | 14.44° C | 78% | 1040.6 hPa | 0 mm | - | 46 W/m² | - |
| 1777484605 | 14.44° C | 78% | 1040.7 hPa | 0 mm | - | 41 W/m² | - |
| 1777484002 | 14.44° C | 77% | 1040.9 hPa | 0 mm | - | 35 W/m² | - |
| 1777483401 | 14.44° C | 77% | 1041.2 hPa | 0 mm | - | 69 W/m² | - |
| 1777482799 | 14.44° C | 77% | 1041.2 hPa | 0 mm | - | 74 W/m² | - |
| 1777482198 | 14.44° C | 78% | 1041.2 hPa | 0 mm | - | 85 W/m² | - |
| 1777481593 | 14.44° C | 78% | 1041 hPa | 0 mm | - | 119 W/m² | - |
| 1777480992 | 13.89° C | 78% | 1041 hPa | 0 mm | - | 129 W/m² | - |
| 1777480391 | 13.89° C | 78% | 1041.1 hPa | 0 mm | - | 126 W/m² | - |
| 1777479789 | 13.89° C | 79% | 1041.4 hPa | 0 mm | - | 95 W/m² | - |
| 1777479183 | 13.89° C | 79% | 1041.8 hPa | 0 mm | - | 75 W/m² | - |
| 1777478582 | 13.33° C | 78% | 1042 hPa | 0 mm | - | 75 W/m² | - |
| 1777477982 | 13.33° C | 78% | 1042 hPa | 0 mm | - | 94 W/m² | - |
| 1777477380 | 13.33° C | 77% | 1042.1 hPa | 0 mm | - | 119 W/m² | - |
| 1777476780 | 13.33° C | 77% | 1042.1 hPa | 0 mm | - | 150 W/m² | - |
* Rain latest hour (hover to see other rain measurements)
** Current wind speed in m/s (hover to see current wind gust speed)